createdAt,value
2023-01-03T00:02:00.119Z,58.13
2023-01-03T00:04:30.474Z,58.10
2023-01-03T00:07:00.880Z,58.07
2023-01-03T00:09:31.103Z,57.95
2023-01-03T00:12:25.580Z,57.75
2023-01-03T00:14:58.986Z,57.31
2023-01-03T00:17:30.066Z,57.78
2023-01-03T00:20:00.310Z,58.00
2023-01-03T00:22:34.124Z,57.59
2023-01-03T00:25:04.429Z,57.47
2023-01-03T00:27:34.697Z,57.75
2023-01-03T00:30:04.911Z,57.74
2023-01-03T00:32:35.645Z,57.76
2023-01-03T00:35:07.721Z,57.45
2023-01-03T00:37:38.034Z,57.88
2023-01-03T00:40:08.660Z,57.32
2023-01-03T00:42:58.538Z,57.42
2023-01-03T00:45:33.617Z,57.57
2023-01-03T00:48:05.751Z,57.51
2023-01-03T00:50:39.176Z,57.56
2023-01-03T00:53:09.435Z,57.72
2023-01-03T00:55:39.730Z,57.55
2023-01-03T00:58:09.816Z,57.52
2023-01-03T01:00:40.069Z,57.27
2023-01-03T01:03:10.462Z,57.18
2023-01-03T01:05:40.759Z,57.10
2023-01-03T01:08:11.039Z,56.92
2023-01-03T01:11:04.085Z,56.87
2023-01-03T01:13:35.443Z,56.85
2023-01-03T01:16:08.377Z,56.86
2023-01-03T01:18:40.169Z,56.94
2023-01-03T01:21:12.891Z,56.66
2023-01-03T01:23:44.534Z,56.79
2023-01-03T01:26:17.629Z,56.78
2023-01-03T01:28:47.877Z,56.61
2023-01-03T01:31:20.569Z,56.67
2023-01-03T01:33:51.044Z,56.89
2023-01-03T01:36:25.015Z,56.81
2023-01-03T01:38:58.946Z,57.03
2023-01-03T01:41:49.979Z,56.90
2023-01-03T01:44:51.024Z,56.87
2023-01-03T01:47:33.696Z,56.76
2023-01-03T01:50:09.414Z,56.79
2023-01-03T01:52:42.230Z,56.65
2023-01-03T01:55:21.303Z,56.68
2023-01-03T01:57:52.023Z,56.42
2023-01-03T02:00:22.952Z,56.56
2023-01-03T02:02:55.913Z,56.42
2023-01-03T02:05:26.548Z,56.43
2023-01-03T02:07:58.101Z,56.67
2023-01-03T02:10:44.053Z,56.63
2023-01-03T02:13:25.419Z,56.51
2023-01-03T02:16:06.503Z,56.59
2023-01-03T02:19:00.510Z,56.28
2023-01-03T02:22:03.740Z,56.52
2023-01-03T02:24:56.849Z,56.10
2023-01-03T02:27:53.772Z,55.92
2023-01-03T02:30:55.779Z,56.08
2023-01-03T02:33:31.771Z,55.88
2023-01-03T02:36:29.533Z,55.87
2023-01-03T02:39:32.457Z,55.84
2023-01-03T02:42:25.736Z,56.04
2023-01-03T02:45:13.580Z,55.95
2023-01-03T02:48:09.906Z,55.84
2023-01-03T02:50:57.380Z,55.87
2023-01-03T02:53:41.404Z,56.07
2023-01-03T02:56:18.054Z,55.99
2023-01-03T02:58:53.207Z,55.92
2023-01-03T03:01:23.629Z,55.86
2023-01-03T03:03:54.817Z,55.74
2023-01-03T03:06:30.553Z,55.91
2023-01-03T03:09:01.328Z,56.40
2023-01-03T03:11:54.011Z,56.42
2023-01-03T03:14:37.554Z,56.29
2023-01-03T03:17:20.717Z,55.86
2023-01-03T03:20:18.268Z,55.70
2023-01-03T03:23:14.954Z,55.71
2023-01-03T03:25:56.568Z,56.23
2023-01-03T03:28:37.895Z,55.91
2023-01-03T03:31:19.003Z,56.05
2023-01-03T03:33:54.010Z,55.72
2023-01-03T03:36:40.592Z,55.77
2023-01-03T03:39:32.463Z,55.65
2023-01-03T03:42:48.169Z,55.84
2023-01-03T03:45:51.529Z,55.78
2023-01-03T03:49:16.034Z,56.41
2023-01-03T03:51:49.976Z,56.10
2023-01-03T03:54:24.286Z,55.71
2023-01-03T03:57:18.615Z,55.97
2023-01-03T03:59:54.122Z,55.71
2023-01-03T04:02:26.951Z,55.85
2023-01-03T04:05:01.659Z,56.65
2023-01-03T04:07:32.048Z,56.61
2023-01-03T04:10:02.768Z,56.82
2023-01-03T04:12:32.930Z,56.95
2023-01-03T04:15:03.169Z,56.75
2023-01-03T04:17:33.609Z,56.98
2023-01-03T04:20:03.768Z,56.79
2023-01-03T04:22:33.993Z,56.49
2023-01-03T04:25:05.336Z,56.45
2023-01-03T04:27:35.590Z,56.33
2023-01-03T04:30:07.260Z,56.25
2023-01-03T04:32:37.439Z,56.57
2023-01-03T04:35:08.639Z,56.45
2023-01-03T04:37:38.906Z,55.94
2023-01-03T04:40:09.552Z,56.25
2023-01-03T04:42:58.569Z,56.77
2023-01-03T04:45:28.929Z,56.00
2023-01-03T04:47:59.950Z,56.71
2023-01-03T04:50:31.468Z,57.03
2023-01-03T04:53:01.363Z,56.88
2023-01-03T04:55:31.439Z,57.08
2023-01-03T04:58:01.523Z,57.02
2023-01-03T05:00:31.608Z,56.79
2023-01-03T05:03:02.031Z,57.09
2023-01-03T05:05:32.255Z,57.54
2023-01-03T05:08:05.993Z,57.02
2023-01-03T05:10:37.790Z,56.64
2023-01-03T05:13:08.306Z,56.77
2023-01-03T05:15:41.751Z,56.31
2023-01-03T05:18:13.281Z,55.90
2023-01-03T05:21:01.257Z,56.73
2023-01-03T05:23:49.893Z,56.96
2023-01-03T05:26:24.373Z,56.49
2023-01-03T05:28:57.185Z,56.97
2023-01-03T05:31:27.765Z,57.38
2023-01-03T05:33:59.210Z,57.54
2023-01-03T05:36:29.013Z,57.49
2023-01-03T05:38:59.355Z,57.56
2023-01-03T05:41:48.381Z,57.24
2023-01-03T05:44:18.983Z,57.60
2023-01-03T05:46:49.458Z,57.57
2023-01-03T05:49:19.739Z,57.58
2023-01-03T05:51:49.968Z,57.46
2023-01-03T05:54:21.887Z,57.12
2023-01-03T05:56:53.385Z,56.97
2023-01-03T05:59:24.941Z,56.65
2023-01-03T06:01:55.655Z,56.56
2023-01-03T06:04:26.057Z,57.15
2023-01-03T06:06:57.356Z,57.14
2023-01-03T06:09:27.570Z,57.14
2023-01-03T06:11:58.376Z,57.36
2023-01-03T06:14:28.611Z,57.05
2023-01-03T06:17:17.297Z,57.18
2023-01-03T06:19:47.584Z,57.69
2023-01-03T06:22:17.668Z,57.60
2023-01-03T06:24:47.704Z,57.56
2023-01-03T06:27:17.721Z,57.67
2023-01-03T06:29:47.733Z,57.71
2023-01-03T06:32:18.304Z,57.81
2023-01-03T06:34:48.574Z,57.03
2023-01-03T06:37:18.786Z,57.19
2023-01-03T06:39:48.944Z,57.10
2023-01-03T06:42:37.227Z,57.25
2023-01-03T06:45:26.113Z,56.90
2023-01-03T06:48:14.872Z,57.38
2023-01-03T06:51:04.421Z,57.37
2023-01-03T06:53:39.374Z,57.35
2023-01-03T06:56:10.997Z,57.07
2023-01-03T06:58:41.317Z,57.20
2023-01-03T07:01:12.521Z,57.65
2023-01-03T07:03:43.456Z,57.17
2023-01-03T07:06:13.715Z,57.58
2023-01-03T07:08:48.149Z,57.76
2023-01-03T07:11:18.900Z,57.50
2023-01-03T07:14:01.186Z,57.11
2023-01-03T07:16:34.814Z,57.67
2023-01-03T07:19:07.017Z,56.86
2023-01-03T07:21:38.293Z,57.44
2023-01-03T07:24:09.785Z,57.18
2023-01-03T07:26:41.789Z,57.49
2023-01-03T07:29:13.209Z,57.33
2023-01-03T07:31:44.180Z,57.17
2023-01-03T07:34:14.589Z,57.17
2023-01-03T07:36:44.855Z,57.19
2023-01-03T07:39:15.049Z,57.32
2023-01-03T07:42:03.577Z,57.43
2023-01-03T07:44:33.854Z,57.69
2023-01-03T07:47:04.043Z,57.79
2023-01-03T07:49:35.339Z,57.76
2023-01-03T07:52:05.528Z,57.75
2023-01-03T07:54:36.022Z,57.71
2023-01-03T07:57:06.598Z,57.18
2023-01-03T07:59:37.314Z,57.43
2023-01-03T08:02:07.721Z,57.45
2023-01-03T08:04:38.633Z,56.97
2023-01-03T08:07:10.449Z,57.40
2023-01-03T08:09:59.310Z,57.13
2023-01-03T08:12:47.701Z,56.98
2023-01-03T08:15:18.416Z,57.33
2023-01-03T08:17:48.552Z,57.47
2023-01-03T08:20:18.904Z,57.76
2023-01-03T08:22:48.886Z,57.78
2023-01-03T08:25:18.976Z,57.71
2023-01-03T08:27:50.541Z,57.95
2023-01-03T08:30:21.075Z,57.75
2023-01-03T08:32:53.232Z,57.76
2023-01-03T08:35:24.544Z,57.84
2023-01-03T08:37:56.901Z,57.65
2023-01-03T08:40:27.129Z,57.53
2023-01-03T08:42:58.412Z,57.65
2023-01-03T08:45:29.699Z,57.44
2023-01-03T08:48:00.891Z,57.14
2023-01-03T08:50:41.565Z,56.92
2023-01-03T08:53:11.787Z,57.55
2023-01-03T08:55:42.252Z,56.97
2023-01-03T08:58:14.293Z,57.30
2023-01-03T09:00:44.633Z,57.49
2023-01-03T09:03:15.276Z,57.32
2023-01-03T09:05:45.693Z,57.29
2023-01-03T09:08:16.102Z,57.83
2023-01-03T09:10:47.934Z,57.46
2023-01-03T09:13:18.227Z,57.57
2023-01-03T09:15:48.507Z,57.72
2023-01-03T09:18:18.823Z,57.69
2023-01-03T09:20:55.276Z,57.36
2023-01-03T09:23:26.876Z,57.15
2023-01-03T09:25:57.204Z,57.09
2023-01-03T09:28:28.085Z,57.12
2023-01-03T09:30:58.364Z,57.01
2023-01-03T09:33:28.744Z,57.00
2023-01-03T09:35:59.032Z,57.33
2023-01-03T09:38:29.355Z,57.12
2023-01-03T09:41:02.304Z,57.14
2023-01-03T09:43:44.270Z,57.35
2023-01-03T09:46:26.764Z,57.54
2023-01-03T09:48:58.277Z,57.35
2023-01-03T09:51:46.072Z,57.79
2023-01-03T09:54:58.741Z,57.83
2023-01-03T09:57:55.668Z,57.89
2023-01-03T10:01:01.292Z,57.90
2023-01-03T10:03:56.065Z,57.88
2023-01-03T10:07:10.900Z,57.69
2023-01-03T10:10:14.681Z,57.75
2023-01-03T10:12:45.748Z,57.85
2023-01-03T10:15:39.834Z,57.47
2023-01-03T10:18:20.673Z,57.77
2023-01-03T10:21:16.665Z,58.07
2023-01-03T10:23:48.723Z,58.02
2023-01-03T10:26:18.977Z,58.07
2023-01-03T10:28:50.856Z,58.19
2023-01-03T10:31:54.062Z,57.91
2023-01-03T10:34:24.563Z,58.13
2023-01-03T10:36:54.732Z,58.27
2023-01-03T10:39:35.304Z,58.18
2023-01-03T10:42:08.506Z,58.54
2023-01-03T10:44:38.686Z,58.34
2023-01-03T10:47:18.711Z,58.29
2023-01-03T10:49:49.911Z,58.54
2023-01-03T10:52:25.178Z,58.41
2023-01-03T10:55:13.596Z,58.08
2023-01-03T10:58:03.149Z,57.92
2023-01-03T11:00:38.270Z,58.26
2023-01-03T11:03:28.699Z,57.98
2023-01-03T11:06:04.606Z,58.58
2023-01-03T11:08:51.420Z,58.58
2023-01-03T11:11:42.704Z,58.51
2023-01-03T11:14:13.134Z,58.56
2023-01-03T11:16:43.456Z,58.73
2023-01-03T11:19:20.823Z,58.65
2023-01-03T11:21:58.982Z,58.66
2023-01-03T11:24:49.438Z,58.64
2023-01-03T11:28:02.859Z,58.68
2023-01-03T11:30:57.479Z,58.62
2023-01-03T11:33:52.070Z,58.43
2023-01-03T11:36:32.983Z,58.48
2023-01-03T11:39:34.580Z,58.36
2023-01-03T11:42:22.945Z,57.97
2023-01-03T11:45:25.107Z,58.31
2023-01-03T11:48:04.425Z,58.56
2023-01-03T11:50:52.549Z,58.39
2023-01-03T11:53:39.493Z,58.74
2023-01-03T11:56:39.960Z,58.66
2023-01-03T11:59:28.152Z,58.90
2023-01-03T12:02:24.359Z,58.62
2023-01-03T12:05:32.881Z,58.69
2023-01-03T12:08:15.341Z,58.64
2023-01-03T12:10:57.664Z,58.34
2023-01-03T12:13:30.600Z,58.40
2023-01-03T12:16:25.699Z,57.94
2023-01-03T12:19:12.031Z,57.77
2023-01-03T12:21:54.350Z,57.89
2023-01-03T12:24:42.471Z,57.89
2023-01-03T12:27:29.309Z,58.28
2023-01-03T12:30:09.719Z,58.39
2023-01-03T12:32:47.798Z,58.33
2023-01-03T12:35:32.867Z,58.24
2023-01-03T12:38:06.646Z,58.38
2023-01-03T12:41:14.207Z,58.26
2023-01-03T12:43:54.941Z,57.81
2023-01-03T12:46:49.727Z,57.94
2023-01-03T12:49:40.540Z,57.24
2023-01-03T12:52:20.561Z,57.11
2023-01-03T12:55:16.519Z,57.20
2023-01-03T12:57:49.703Z,57.79
2023-01-03T13:00:41.489Z,57.87
2023-01-03T13:03:56.739Z,57.70
2023-01-03T13:06:35.811Z,58.19
2023-01-03T13:09:20.369Z,58.03
2023-01-03T13:11:56.876Z,57.89
2023-01-03T13:14:30.020Z,58.37
2023-01-03T13:17:18.945Z,58.03
2023-01-03T13:20:22.773Z,58.13
2023-01-03T13:22:59.256Z,58.35
2023-01-03T13:25:29.475Z,58.02
2023-01-03T13:28:01.654Z,58.19
2023-01-03T13:30:37.705Z,57.96
2023-01-03T13:33:28.019Z,57.63
2023-01-03T13:36:04.111Z,57.92
2023-01-03T13:41:42.174Z,56.08
2023-01-03T13:44:23.938Z,55.16
2023-01-03T13:46:55.025Z,55.55
2023-01-03T13:49:31.336Z,55.77
2023-01-03T13:52:07.617Z,55.34
2023-01-03T13:54:58.251Z,55.54
2023-01-03T13:57:40.256Z,55.89
2023-01-03T14:00:21.509Z,55.88
2023-01-03T14:03:20.052Z,55.80
2023-01-03T14:06:21.557Z,55.85
2023-01-03T14:09:16.173Z,55.84
2023-01-03T14:12:06.768Z,56.00
2023-01-03T14:14:42.204Z,55.17
2023-01-03T14:17:19.933Z,55.30
2023-01-03T14:19:54.652Z,55.79
2023-01-03T14:22:31.962Z,55.92
2023-01-03T14:25:02.539Z,55.42
2023-01-03T14:27:41.640Z,55.02
2023-01-03T14:30:26.423Z,54.03
2023-01-03T14:32:56.944Z,54.21
2023-01-03T14:35:39.253Z,54.14
2023-01-03T14:38:24.935Z,54.20
2023-01-03T14:40:58.043Z,53.99
2023-01-03T14:43:32.543Z,54.21
2023-01-03T14:46:13.992Z,54.49
2023-01-03T14:48:48.446Z,54.60
2023-01-03T14:51:21.083Z,55.74
2023-01-03T14:53:52.645Z,55.23
2023-01-03T14:56:28.558Z,55.74
2023-01-03T14:58:59.567Z,56.21
2023-01-03T15:01:30.975Z,56.76
2023-01-03T15:04:02.902Z,56.43
2023-01-03T15:06:33.592Z,57.09
2023-01-03T15:09:21.309Z,57.28
2023-01-03T15:11:58.816Z,57.16
2023-01-03T15:14:37.804Z,57.06
2023-01-03T15:17:13.804Z,57.35
2023-01-03T15:19:53.111Z,57.26
2023-01-03T15:22:26.125Z,57.17
2023-01-03T15:25:18.784Z,57.15
2023-01-03T15:27:52.118Z,57.22
2023-01-03T15:30:28.169Z,57.10
2023-01-03T15:33:22.230Z,56.90
2023-01-03T15:35:55.959Z,56.35
2023-01-03T15:38:41.588Z,56.36
2023-01-03T15:42:12.371Z,55.96
2023-01-03T15:44:43.299Z,56.14
2023-01-03T15:47:18.494Z,56.31
2023-01-03T15:49:52.907Z,56.03
2023-01-03T15:52:23.019Z,56.20
2023-01-03T15:54:53.045Z,56.40
2023-01-03T15:57:25.623Z,56.18
2023-01-03T15:59:59.118Z,56.16
2023-01-03T16:02:29.547Z,56.26
2023-01-03T16:05:00.152Z,56.27
2023-01-03T16:07:30.350Z,56.36
2023-01-03T16:10:00.327Z,56.18
2023-01-03T16:12:38.818Z,56.14
2023-01-03T16:15:10.950Z,56.08
2023-01-03T16:17:41.577Z,56.26
2023-01-03T16:20:18.133Z,56.05
2023-01-03T16:23:01.062Z,55.88
2023-01-03T16:25:32.023Z,56.13
2023-01-03T16:28:05.738Z,55.94
2023-01-03T16:30:39.235Z,56.31
2023-01-03T16:33:11.706Z,55.94
2023-01-03T16:35:41.830Z,55.88
2023-01-03T16:38:15.957Z,55.81
2023-01-03T16:40:47.536Z,55.87
2023-01-03T16:43:17.729Z,55.72
2023-01-03T16:45:47.825Z,55.90
2023-01-03T16:48:24.367Z,56.12
2023-01-03T16:50:57.579Z,56.08
2023-01-03T16:53:37.373Z,55.99
2023-01-03T16:56:12.222Z,55.95
2023-01-03T16:58:42.412Z,56.08
2023-01-03T17:01:13.132Z,56.23
2023-01-03T17:03:43.755Z,55.94
2023-01-03T17:06:38.419Z,55.97
2023-01-03T17:09:20.056Z,56.06
2023-01-03T17:11:50.011Z,56.24
2023-01-03T17:14:23.376Z,56.44
2023-01-03T17:16:53.814Z,56.50
2023-01-03T17:22:23.833Z,56.26
2023-01-03T17:24:55.248Z,56.72
2023-01-03T17:27:33.108Z,56.48
2023-01-03T17:30:09.557Z,57.20
2023-01-03T17:32:39.908Z,56.72
2023-01-03T17:35:16.016Z,57.39
2023-01-03T17:40:38.257Z,57.15
2023-01-03T17:43:08.544Z,57.37
2023-01-03T17:45:56.811Z,56.95
2023-01-03T17:48:45.714Z,56.66
2023-01-03T17:51:16.374Z,56.93
2023-01-03T17:53:48.717Z,57.67
2023-01-03T17:56:22.988Z,56.95
2023-01-03T17:58:56.598Z,56.97
2023-01-03T18:01:27.292Z,57.01
2023-01-03T18:03:57.479Z,56.79
2023-01-03T18:06:28.831Z,56.66
2023-01-03T18:08:59.171Z,57.09
2023-01-03T18:11:30.138Z,57.01
2023-01-03T18:14:00.585Z,56.40
2023-01-03T18:16:31.123Z,56.42
2023-01-03T18:19:01.425Z,56.48
2023-01-03T18:21:31.654Z,56.37
2023-01-03T18:24:27.712Z,56.53
2023-01-03T18:26:59.541Z,56.45
2023-01-03T18:29:29.727Z,56.63
2023-01-03T18:32:00.292Z,56.08
2023-01-03T18:34:30.573Z,56.38
2023-01-03T18:37:00.764Z,56.47
2023-01-03T18:39:32.660Z,56.28
2023-01-03T18:42:21.214Z,56.46
2023-01-03T18:44:51.678Z,56.73
2023-01-03T18:47:21.900Z,56.42
2023-01-03T18:49:51.951Z,56.04
2023-01-03T18:52:30.085Z,55.88
2023-01-03T18:55:00.438Z,56.33
2023-01-03T18:57:31.033Z,55.80
2023-01-03T19:00:01.229Z,56.74
2023-01-03T19:02:32.684Z,55.78
2023-01-03T19:05:04.216Z,56.06
2023-01-03T19:07:36.937Z,55.92
2023-01-03T19:10:09.478Z,55.88
2023-01-03T19:12:42.077Z,55.75
2023-01-03T19:15:27.924Z,55.50
2023-01-03T19:17:59.524Z,55.95
2023-01-03T19:20:30.113Z,55.63
2023-01-03T19:23:00.246Z,55.86
2023-01-03T19:25:32.445Z,56.25
2023-01-03T19:28:07.464Z,56.79
2023-01-03T19:30:48.364Z,55.71
2023-01-03T19:33:21.528Z,55.66
2023-01-03T19:35:51.995Z,55.90
2023-01-03T19:38:22.176Z,55.69
2023-01-03T19:40:53.623Z,55.79
2023-01-03T19:43:25.652Z,55.93
2023-01-03T19:45:56.238Z,55.68
2023-01-03T19:48:30.426Z,55.72
2023-01-03T19:51:00.735Z,55.34
2023-01-03T19:53:30.773Z,55.55
2023-01-03T19:56:01.248Z,55.30
2023-01-03T19:58:40.532Z,55.28
2023-01-03T20:01:17.476Z,55.31
2023-01-03T20:03:48.217Z,55.76
2023-01-03T20:06:21.467Z,55.34
2023-01-03T20:08:51.888Z,55.43
2023-01-03T20:11:24.925Z,55.43
2023-01-03T20:13:55.682Z,55.53
2023-01-03T20:16:26.178Z,55.43
2023-01-03T20:18:57.671Z,55.18
2023-01-03T20:21:33.740Z,55.41
2023-01-03T20:24:05.165Z,55.23
2023-01-03T20:26:38.548Z,55.32
2023-01-03T20:29:08.844Z,55.17
2023-01-03T20:31:39.067Z,55.02
2023-01-03T20:34:12.613Z,55.11
2023-01-03T20:36:46.567Z,55.03
2023-01-03T20:39:39.932Z,55.18
2023-01-03T20:42:26.887Z,55.08
2023-01-03T20:44:58.713Z,55.39
2023-01-03T20:47:29.153Z,55.19
2023-01-03T20:49:59.405Z,55.01
2023-01-03T20:52:29.530Z,55.23
2023-01-03T20:55:00.004Z,55.29
2023-01-03T20:57:30.227Z,55.37
2023-01-03T21:00:00.705Z,55.30
2023-01-03T21:02:31.106Z,55.30
2023-01-03T21:05:02.100Z,55.16
2023-01-03T21:07:51.523Z,55.46
2023-01-03T21:10:31.278Z,55.23
2023-01-03T21:13:01.533Z,55.29
2023-01-03T21:15:31.906Z,55.25
2023-01-03T21:18:02.390Z,55.20
2023-01-03T21:20:33.936Z,55.14
2023-01-03T21:23:04.607Z,55.14
2023-01-03T21:25:37.732Z,55.03
2023-01-03T21:28:08.082Z,55.38
2023-01-03T21:30:38.557Z,55.17
2023-01-03T21:33:09.231Z,54.93
2023-01-03T21:35:43.163Z,55.04
2023-01-03T21:38:13.487Z,55.15
2023-01-03T21:40:43.512Z,55.03
2023-01-03T21:43:14.523Z,55.14
2023-01-03T21:45:48.821Z,55.11
2023-01-03T21:48:20.675Z,55.14
2023-01-03T21:50:54.809Z,55.09
2023-01-03T21:53:26.048Z,55.09
2023-01-03T21:55:56.672Z,55.34
2023-01-03T21:58:27.456Z,55.17
2023-01-03T22:00:57.856Z,55.23
2023-01-03T22:03:46.822Z,55.25
2023-01-03T22:06:17.153Z,55.11
2023-01-03T22:08:47.074Z,55.28
2023-01-03T22:11:17.373Z,55.33
2023-01-03T22:13:50.389Z,55.29
2023-01-03T22:16:20.992Z,55.18
2023-01-03T22:18:51.330Z,55.19
2023-01-03T22:21:22.705Z,55.12
2023-01-03T22:23:52.924Z,55.50
2023-01-03T22:26:23.187Z,55.76
2023-01-03T22:28:53.432Z,55.78
2023-01-03T22:31:26.997Z,55.69
2023-01-03T22:33:57.094Z,55.94
2023-01-03T22:36:28.819Z,56.32
2023-01-03T22:38:59.263Z,56.07
2023-01-03T22:41:30.441Z,56.29
2023-01-03T22:44:00.759Z,55.91
2023-01-03T22:46:31.093Z,56.41
2023-01-03T22:49:01.605Z,56.63
2023-01-03T22:51:31.753Z,56.29
2023-01-03T22:54:02.028Z,56.48
2023-01-03T22:56:32.486Z,56.57
2023-01-03T22:59:04.332Z,56.39
2023-01-03T23:01:53.539Z,55.92
2023-01-03T23:04:25.448Z,55.45
2023-01-03T23:06:56.827Z,55.24
2023-01-03T23:09:27.077Z,55.61
2023-01-03T23:12:15.536Z,55.64
2023-01-03T23:14:45.731Z,55.84
2023-01-03T23:17:34.252Z,55.87
2023-01-03T23:20:04.440Z,55.83
2023-01-03T23:22:34.776Z,55.82
2023-01-03T23:25:04.928Z,55.80
2023-01-03T23:27:35.168Z,55.82
2023-01-03T23:30:05.195Z,55.90
2023-01-03T23:32:35.861Z,55.69
2023-01-03T23:35:06.318Z,55.73
2023-01-03T23:37:36.582Z,55.82
2023-01-03T23:40:07.176Z,55.81
2023-01-03T23:42:37.901Z,55.79
2023-01-03T23:45:08.699Z,55.80
2023-01-03T23:47:38.862Z,55.74
2023-01-03T23:50:08.916Z,55.84
2023-01-03T23:52:39.254Z,55.77
2023-01-03T23:55:12.618Z,55.87
2023-01-03T23:57:43.389Z,55.77
